TimeAKDT,TemperatureF,Dew PointF,Humidity,Sea Level PressureIn,VisibilityMPH,Wind Direction,Wind SpeedMPH,Gust SpeedMPH,PrecipitationIn,Events,Conditions,WindDirDegrees,DateUTC
12:53 AM,51.1,46.9,86,30.01,10.0,Calm,Calm,-,N/A,,Overcast,0,2013-07-10 08:53:00
1:53 AM,51.1,46.9,86,30.01,10.0,Calm,Calm,-,N/A,,Overcast,0,2013-07-10 09:53:00
2:53 AM,50.0,46.0,86,29.98,10.0,Calm,Calm,-,N/A,,Overcast,0,2013-07-10 10:53:00
3:53 AM,48.0,45.0,89,29.99,10.0,Calm,Calm,-,N/A,,Mostly Cloudy,0,2013-07-10 11:53:00
4:53 AM,48.0,45.0,89,29.99,10.0,NNE,3.5,-,N/A,,Partly Cloudy,30,2013-07-10 12:53:00
5:53 AM,48.0,45.0,89,29.99,10.0,Calm,Calm,-,N/A,,Clear,0,2013-07-10 13:53:00
6:53 AM,48.9,46.0,90,29.98,10.0,Calm,Calm,-,N/A,,Clear,0,2013-07-10 14:53:00
7:53 AM,51.1,46.9,86,29.96,10.0,Calm,Calm,-,N/A,,Clear,0,2013-07-10 15:53:00
8:53 AM,52.0,46.0,80,29.95,10.0,SSW,3.5,-,N/A,,Clear,210,2013-07-10 16:53:00
9:53 AM,51.1,46.0,83,29.94,10.0,SW,4.6,-,N/A,,Clear,220,2013-07-10 17:53:00
10:53 AM,52.0,46.9,83,29.93,10.0,WSW,4.6,-,N/A,,Clear,240,2013-07-10 18:53:00
11:53 AM,52.0,46.9,83,29.91,10.0,SW,6.9,-,N/A,,Clear,230,2013-07-10 19:53:00
12:53 PM,55.9,45.0,67,29.89,10.0,WSW,9.2,-,N/A,,Clear,240,2013-07-10 20:53:00
1:53 PM,62.1,44.1,52,29.87,10.0,SSW,16.1,-,N/A,,Clear,210,2013-07-10 21:53:00
2:53 PM,60.1,44.1,55,29.85,10.0,SSW,20.7,-,N/A,,Clear,210,2013-07-10 22:53:00
3:53 PM,61.0,46.0,58,29.84,10.0,SSW,21.9,-,N/A,,Clear,210,2013-07-10 23:53:00
4:53 PM,59.0,46.0,62,29.83,10.0,SSW,24.2,-,N/A,,Clear,210,2013-07-11 00:53:00
5:53 PM,60.1,46.0,60,29.82,10.0,SSW,21.9,-,N/A,,Clear,210,2013-07-11 01:53:00
6:53 PM,60.1,46.0,60,29.82,10.0,SSW,23.0,-,N/A,,Clear,210,2013-07-11 02:53:00
7:53 PM,60.1,45.0,57,29.82,10.0,SSW,19.6,-,N/A,,Clear,210,2013-07-11 03:53:00
8:53 PM,62.1,44.1,52,29.83,10.0,SSW,16.1,21.9,N/A,,Clear,200,2013-07-11 04:53:00
9:53 PM,57.0,46.9,69,29.84,10.0,South,11.5,-,N/A,,Clear,190,2013-07-11 05:53:00
10:53 PM,55.9,46.9,72,29.85,10.0,West,6.9,-,N/A,,Scattered Clouds,280,2013-07-11 06:53:00
11:53 PM,54.0,46.9,77,29.86,10.0,NNE,5.8,-,N/A,,Clear,30,2013-07-11 07:53:00